Time;durP1;ratioP1;P1;durP2;ratioP2;P2;SDS_P1;SDS_P2;PMS_P1;PMS_P2;Temp;Humidity;BMP_temperature;BMP_pressure;BME280_temperature;BME280_humidity;BME280_pressure;Samples;Min_cycle;Max_cycle;Signal;HPM_P1;HPM_P2
2021/08/20 00:01:53;;;;;;;35.17;18.75;;;15.50;99.90;;;;;;4949153;29;20114;-52
2021/08/20 00:04:18;;;;;;;27.10;18.05;;;15.50;99.90;;;;;;4954886;28;20047;-50
2021/08/20 00:06:44;;;;;;;28.40;18.45;;;15.50;99.90;;;;;;4955716;29;20044;-52
2021/08/20 00:09:10;;;;;;;28.17;18.35;;;15.50;99.90;;;;;;4955665;29;20074;-53
2021/08/20 00:11:37;;;;;;;26.83;18.27;;;15.50;99.90;;;;;;4949198;29;20039;-49
2021/08/20 00:14:05;;;;;;;28.65;19.63;;;15.50;99.90;;;;;;4906120;28;20043;-51
2021/08/20 00:16:31;;;;;;;31.40;19.65;;;15.40;99.90;;;;;;4955568;29;20047;-51
2021/08/20 00:18:57;;;;;;;32.08;20.35;;;15.40;99.90;;;;;;4955540;29;20047;-51
2021/08/20 00:21:23;;;;;;;32.95;20.27;;;15.40;99.90;;;;;;4955147;29;20043;-52
2021/08/20 00:23:48;;;;;;;33.10;20.85;;;15.40;99.90;;;;;;4954702;29;20126;-48
2021/08/20 00:26:14;;;;;;;30.38;21.55;;;15.40;99.90;;;;;;4955393;29;20036;-51
2021/08/20 00:28:40;;;;;;;32.88;22.38;;;15.40;99.90;;;;;;4955032;29;20047;-54
2021/08/20 00:31:05;;;;;;;33.22;23.42;;;15.40;99.90;;;;;;4954757;29;20071;-51
2021/08/20 00:33:33;;;;;;;34.25;23.25;;;15.30;99.90;;;;;;4955374;29;20043;-51
2021/08/20 00:35:59;;;;;;;32.90;23.85;;;15.40;99.90;;;;;;4955192;29;20393;-50
2021/08/20 00:38:25;;;;;;;34.17;23.02;;;15.30;99.90;;;;;;4955120;29;20050;-51
2021/08/20 00:40:54;;;;;;;35.03;23.95;;;15.30;99.90;;;;;;4937992;29;20448;-51
2021/08/20 00:43:20;;;;;;;33.42;23.60;;;15.30;99.90;;;;;;4954143;29;20125;-49
2021/08/20 00:45:58;;;;;;;33.67;23.80;;;15.30;99.90;;;;;;4955231;28;20162;-51
2021/08/20 00:48:25;;;;;;;32.42;23.35;;;15.30;99.90;;;;;;4942303;29;20047;-51
2021/08/20 00:51:01;;;;;;;38.78;24.90;;;15.20;99.90;;;;;;4946613;29;20040;-52
2021/08/20 00:53:30;;;;;;;34.28;23.98;;;15.20;99.90;;;;;;4936183;29;20031;-48
2021/08/20 00:55:55;;;;;;;34.00;24.23;;;15.20;99.90;;;;;;4912338;29;20393;-51
2021/08/20 00:58:22;;;;;;;37.58;25.17;;;15.20;99.90;;;;;;4953100;29;20039;-49
2021/08/20 01:00:48;;;;;;;40.53;24.27;;;15.20;99.90;;;;;;4954718;29;20511;-49
2021/08/20 01:03:14;;;;;;;35.78;25.02;;;15.10;99.90;;;;;;4954255;29;20190;-54
2021/08/20 01:05:40;;;;;;;40.65;24.70;;;15.10;99.90;;;;;;4937196;29;20524;-48
2021/08/20 01:08:06;;;;;;;36.25;24.55;;;15.20;99.90;;;;;;4937509;29;20047;-51
2021/08/20 01:10:32;;;;;;;41.28;26.33;;;15.20;99.90;;;;;;4936754;29;20039;-53
2021/08/20 01:12:58;;;;;;;37.13;24.25;;;15.10;99.90;;;;;;4953512;29;20400;-52
2021/08/20 01:15:24;;;;;;;38.13;24.92;;;15.10;99.90;;;;;;4946864;29;20095;-51
2021/08/20 01:17:50;;;;;;;38.97;26.38;;;15.10;99.90;;;;;;4935738;29;20119;-49
2021/08/20 01:20:18;;;;;;;38.05;25.33;;;15.00;99.90;;;;;;4947577;29;20039;-51
2021/08/20 01:22:45;;;;;;;38.50;24.88;;;15.00;99.90;;;;;;4930691;29;20055;-49
2021/08/20 01:25:11;;;;;;;34.85;24.00;;;15.00;99.90;;;;;;4905167;29;20110;-53
2021/08/20 01:27:37;;;;;;;34.20;25.40;;;15.00;99.90;;;;;;4953806;29;20047;-50
2021/08/20 01:30:05;;;;;;;40.10;25.45;;;15.00;99.90;;;;;;4937426;29;20496;-51
2021/08/20 01:32:31;;;;;;;35.95;25.25;;;14.90;99.90;;;;;;4954217;29;20054;-51
2021/08/20 01:34:57;;;;;;;34.80;24.55;;;14.90;99.90;;;;;;4936744;29;20140;-54
2021/08/20 01:37:23;;;;;;;35.50;24.50;;;14.90;99.90;;;;;;4953711;29;20034;-48
2021/08/20 01:39:49;;;;;;;40.75;26.02;;;14.90;99.90;;;;;;4953848;29;20051;-48
2021/08/20 01:42:14;;;;;;;37.70;25.80;;;14.90;99.90;;;;;;4953685;29;20039;-52
2021/08/20 01:44:41;;;;;;;36.15;24.75;;;14.80;99.90;;;;;;4953197;29;20129;-50
2021/08/20 01:47:11;;;;;;;38.05;26.00;;;14.80;99.90;;;;;;4936981;29;20070;-51
2021/08/20 01:49:41;;;;;;;35.03;24.95;;;14.70;99.90;;;;;;4953788;29;20118;-51
2021/08/20 01:52:08;;;;;;;36.67;25.15;;;14.70;99.90;;;;;;4953454;29;20093;-49
2021/08/20 01:54:34;;;;;;;38.97;24.40;;;14.70;99.90;;;;;;4935463;29;20519;-53
2021/08/20 01:57:00;;;;;;;39.28;24.90;;;14.70;99.90;;;;;;4947349;29;20074;-48
2021/08/20 01:59:27;;;;;;;36.70;25.27;;;14.70;99.90;;;;;;4951573;29;20095;-49
2021/08/20 02:01:52;;;;;;;41.80;27.00;;;14.60;99.90;;;;;;4953574;29;20125;-48
2021/08/20 02:04:20;;;;;;;43.33;26.20;;;14.60;99.90;;;;;;4945884;28;20118;-52
2021/08/20 02:06:46;;;;;;;42.65;25.92;;;14.60;99.90;;;;;;4936573;29;20043;-51
2021/08/20 02:09:13;;;;;;;41.35;26.63;;;14.60;99.90;;;;;;4952826;29;20075;-53
2021/08/20 02:11:40;;;;;;;38.15;26.02;;;14.60;99.90;;;;;;4929330;29;20051;-51
2021/08/20 02:14:07;;;;;;;43.42;26.52;;;14.50;99.90;;;;;;4935875;28;20492;-51
2021/08/20 02:16:32;;;;;;;39.30;27.25;;;14.50;99.90;;;;;;4948452;28;20126;-52
2021/08/20 02:18:58;;;;;;;39.42;26.35;;;14.50;99.90;;;;;;4945695;29;20047;-54
2021/08/20 02:21:24;;;;;;;46.72;27.42;;;14.50;99.90;;;;;;4942503;29;20527;-53
2021/08/20 02:23:50;;;;;;;39.38;26.75;;;14.50;99.90;;;;;;4963628;28;20050;-51
2021/08/20 02:26:18;;;;;;;39.20;26.77;;;14.50;99.90;;;;;;4940897;28;20036;-51
2021/08/20 02:28:43;;;;;;;40.03;26.83;;;14.50;99.90;;;;;;4954514;28;20039;-51
2021/08/20 02:31:09;;;;;;;41.08;26.63;;;14.50;99.90;;;;;;4962614;28;20066;-51
2021/08/20 02:33:35;;;;;;;43.83;27.48;;;14.50;99.90;;;;;;4945301;29;20401;-49
2021/08/20 02:36:02;;;;;;;39.42;25.63;;;14.40;99.90;;;;;;4942783;29;20051;-53
2021/08/20 02:38:28;;;;;;;46.28;28.23;;;14.40;99.90;;;;;;4946221;29;20043;-48
2021/08/20 02:40:54;;;;;;;38.60;26.85;;;14.40;99.90;;;;;;4950331;29;20039;-49
2021/08/20 02:43:19;;;;;;;38.40;25.50;;;14.40;99.90;;;;;;4919667;29;20066;-48
2021/08/20 02:45:47;;;;;;;39.30;26.45;;;14.40;99.90;;;;;;4952554;29;20039;-51
2021/08/20 02:48:13;;;;;;;41.35;25.65;;;14.40;99.90;;;;;;4935606;29;20047;-52
2021/08/20 02:50:38;;;;;;;38.45;26.42;;;14.30;99.90;;;;;;4950500;29;20038;-55
2021/08/20 02:53:04;;;;;;;41.42;26.92;;;14.30;99.90;;;;;;4933899;29;20071;-56
2021/08/20 02:55:30;;;;;;;38.28;25.92;;;14.30;99.90;;;;;;4914363;29;20057;-54
2021/08/20 02:57:56;;;;;;;40.00;25.95;;;14.30;99.90;;;;;;4929156;29;20117;-55
2021/08/20 03:00:22;;;;;;;40.22;26.15;;;14.30;99.90;;;;;;4952598;28;20415;-55
2021/08/20 03:02:48;;;;;;;39.72;26.23;;;14.30;99.90;;;;;;4914682;29;20055;-55
2021/08/20 03:05:15;;;;;;;41.90;26.67;;;14.20;99.90;;;;;;4945733;28;20055;-55
2021/08/20 03:07:41;;;;;;;40.15;25.88;;;14.20;99.90;;;;;;4934948;29;20122;-56
2021/08/20 03:10:09;;;;;;;42.53;25.65;;;14.20;99.90;;;;;;4951902;29;20040;-55
2021/08/20 03:12:34;;;;;;;37.25;25.30;;;14.20;99.90;;;;;;4935338;29;20468;-55
2021/08/20 03:15:00;;;;;;;36.78;25.55;;;14.10;99.90;;;;;;4947568;29;20043;-54
2021/08/20 03:17:28;;;;;;;38.70;25.70;;;14.20;99.90;;;;;;4950968;29;20043;-52
2021/08/20 03:19:55;;;;;;;39.83;25.88;;;14.10;99.90;;;;;;4933441;29;20051;-53
2021/08/20 03:22:21;;;;;;;38.67;26.42;;;14.10;99.90;;;;;;4934735;29;20131;-54
2021/08/20 03:24:47;;;;;;;43.55;26.60;;;14.00;99.90;;;;;;4951144;28;20484;-55
2021/08/20 03:27:12;;;;;;;42.80;26.67;;;14.00;99.90;;;;;;4953162;28;20476;-52
2021/08/20 03:29:38;;;;;;;38.13;25.40;;;14.00;99.90;;;;;;4948202;29;20043;-52
2021/08/20 03:32:05;;;;;;;39.92;26.10;;;14.00;99.90;;;;;;4945942;29;20043;-52
2021/08/20 03:34:31;;;;;;;35.80;25.55;;;14.00;99.90;;;;;;4955775;28;20081;-51
2021/08/20 03:36:57;;;;;;;37.00;25.35;;;13.90;99.90;;;;;;4949036;29;20766;-52
2021/08/20 03:39:22;;;;;;;42.13;25.45;;;13.90;99.90;;;;;;4951965;29;20047;-50
2021/08/20 03:41:48;;;;;;;38.38;25.73;;;13.90;99.90;;;;;;4961039;28;20533;-52
2021/08/20 03:44:15;;;;;;;39.50;25.80;;;13.80;99.90;;;;;;4944349;29;20412;-53
2021/08/20 03:46:40;;;;;;;41.00;27.15;;;13.90;99.90;;;;;;4953194;29;20125;-56
2021/08/20 03:49:06;;;;;;;41.70;25.55;;;13.90;99.90;;;;;;4952667;29;20588;-54
2021/08/20 03:51:32;;;;;;;40.33;26.27;;;13.80;99.90;;;;;;4949575;29;20411;-55
2021/08/20 03:53:58;;;;;;;39.60;26.35;;;13.90;99.90;;;;;;4921231;28;20126;-53
2021/08/20 03:56:26;;;;;;;42.60;24.85;;;13.80;99.90;;;;;;4952583;29;20287;-56
2021/08/20 03:58:53;;;;;;;36.75;25.08;;;13.90;99.90;;;;;;4933293;29;20479;-55
2021/08/20 04:01:19;;;;;;;41.08;26.98;;;13.80;99.90;;;;;;4942641;29;20067;-54
2021/08/20 04:03:45;;;;;;;38.83;25.60;;;13.80;99.90;;;;;;4951000;29;20093;-55
2021/08/20 04:06:11;;;;;;;40.30;25.92;;;13.80;99.90;;;;;;4955445;28;20055;-55
2021/08/20 04:08:40;;;;;;;38.78;26.77;;;13.80;99.90;;;;;;4955604;29;20051;-55
2021/08/20 04:11:10;;;;;;;37.53;25.52;;;13.80;99.90;;;;;;4954911;28;20059;-55
2021/08/20 04:13:36;;;;;;;43.33;26.52;;;13.80;99.90;;;;;;4952663;29;20095;-55
2021/08/20 04:16:02;;;;;;;40.95;26.08;;;13.80;99.90;;;;;;4950895;29;20457;-56
2021/08/20 04:18:28;;;;;;;42.50;26.35;;;13.80;99.90;;;;;;4933184;29;20508;-55
2021/08/20 04:20:54;;;;;;;38.45;25.20;;;13.90;99.90;;;;;;4948498;29;20078;-56
2021/08/20 04:23:20;;;;;;;40.85;25.90;;;13.90;99.90;;;;;;4936606;29;20082;-55
2021/08/20 04:25:47;;;;;;;39.15;25.45;;;13.90;99.90;;;;;;4937607;29;20505;-52
2021/08/20 04:28:13;;;;;;;41.00;26.58;;;13.80;99.90;;;;;;4935161;29;20085;-52
2021/08/20 04:30:39;;;;;;;38.92;25.50;;;13.90;99.90;;;;;;4951910;28;20066;-55
2021/08/20 04:33:04;;;;;;;42.40;25.52;;;13.90;99.90;;;;;;4959712;28;20499;-54
2021/08/20 04:35:31;;;;;;;39.10;25.60;;;13.90;99.90;;;;;;4954811;28;20047;-52
2021/08/20 04:37:57;;;;;;;42.53;26.95;;;13.90;99.90;;;;;;4951075;29;20054;-52
2021/08/20 04:40:23;;;;;;;41.45;27.70;;;13.90;99.90;;;;;;4954376;28;20042;-52
2021/08/20 04:42:50;;;;;;;41.60;25.90;;;14.00;99.90;;;;;;4954749;29;20062;-53
2021/08/20 04:45:16;;;;;;;40.05;26.65;;;14.00;99.90;;;;;;4944356;29;20130;-55
2021/08/20 04:47:45;;;;;;;39.30;24.00;;;14.00;99.90;;;;;;4954641;29;20058;-55
2021/08/20 04:50:12;;;;;;;41.75;25.33;;;14.00;99.90;;;;;;4967519;28;20495;-53
2021/08/20 04:52:39;;;;;;;40.28;25.77;;;14.00;99.90;;;;;;4954280;29;20070;-55
2021/08/20 04:55:06;;;;;;;43.03;26.13;;;14.00;99.90;;;;;;4953598;28;20059;-55
2021/08/20 04:57:32;;;;;;;44.45;25.67;;;14.00;99.90;;;;;;4938462;29;20426;-55
2021/08/20 04:59:59;;;;;;;39.67;26.23;;;14.00;99.90;;;;;;4947118;29;20094;-55
2021/08/20 05:02:28;;;;;;;41.78;25.90;;;13.90;99.90;;;;;;4951201;29;20511;-55
2021/08/20 05:04:54;;;;;;;41.70;24.60;;;14.00;99.90;;;;;;4949266;28;20050;-53
2021/08/20 05:07:20;;;;;;;44.45;26.23;;;14.00;99.90;;;;;;4952934;29;20106;-55
2021/08/20 05:09:46;;;;;;;40.28;25.42;;;14.00;99.90;;;;;;4947734;29;20044;-52
2021/08/20 05:12:12;;;;;;;41.95;26.17;;;14.00;99.90;;;;;;4948732;29;20043;-54
2021/08/20 05:14:38;;;;;;;41.33;25.85;;;14.00;99.90;;;;;;4953342;28;20062;-54
2021/08/20 05:17:04;;;;;;;41.67;26.20;;;14.00;99.90;;;;;;4950772;29;20488;-52
2021/08/20 05:19:30;;;;;;;41.80;26.77;;;14.00;99.90;;;;;;4947884;29;20039;-54
2021/08/20 05:21:55;;;;;;;42.15;27.70;;;14.00;99.90;;;;;;4953905;29;20051;-55
2021/08/20 05:24:21;;;;;;;44.20;26.83;;;14.00;99.90;;;;;;4935686;29;20051;-56
2021/08/20 05:26:47;;;;;;;42.22;25.60;;;14.00;99.90;;;;;;4935939;29;20106;-52
2021/08/20 05:29:13;;;;;;;41.90;26.65;;;14.10;99.90;;;;;;4943816;29;20610;-55
2021/08/20 05:31:39;;;;;;;49.05;27.52;;;14.00;99.90;;;;;;4950925;28;20038;-52
2021/08/20 05:34:04;;;;;;;45.83;27.00;;;14.10;99.90;;;;;;4952784;28;20039;-51
2021/08/20 05:36:30;;;;;;;45.10;27.80;;;14.10;99.90;;;;;;4952990;29;20051;-53
2021/08/20 05:38:56;;;;;;;45.33;28.10;;;14.10;99.90;;;;;;4953154;29;20054;-53
2021/08/20 05:41:21;;;;;;;45.58;26.65;;;14.10;99.90;;;;;;4941075;29;20050;-53
2021/08/20 05:43:47;;;;;;;49.40;28.90;;;14.10;99.90;;;;;;4951563;29;20058;-52
2021/08/20 05:46:13;;;;;;;41.38;27.20;;;14.20;99.90;;;;;;4953496;28;20044;-53
2021/08/20 05:48:39;;;;;;;49.83;28.60;;;14.20;99.90;;;;;;4953706;28;20049;-54
2021/08/20 05:51:06;;;;;;;51.50;28.77;;;14.30;99.90;;;;;;4919958;29;20385;-52
2021/08/20 05:53:32;;;;;;;51.03;28.73;;;14.30;99.90;;;;;;4951861;29;20050;-52
2021/08/20 05:55:57;;;;;;;48.17;28.20;;;14.30;99.90;;;;;;4953229;28;20054;-53
2021/08/20 05:58:28;;;;;;;51.70;29.20;;;14.40;99.90;;;;;;4953480;29;20098;-53
2021/08/20 06:00:54;;;;;;;49.83;27.67;;;14.40;99.90;;;;;;4952762;28;20043;-52
2021/08/20 06:03:21;;;;;;;47.50;28.27;;;14.50;99.90;;;;;;4952550;29;20066;-53
2021/08/20 06:05:47;;;;;;;49.80;28.83;;;14.50;99.90;;;;;;4935752;29;20043;-55
2021/08/20 06:08:14;;;;;;;44.50;29.02;;;14.50;99.90;;;;;;4952697;28;20051;-53
2021/08/20 06:10:44;;;;;;;50.65;29.45;;;14.50;99.90;;;;;;4935258;29;20220;-53
2021/08/20 06:13:10;;;;;;;47.53;29.30;;;14.50;99.90;;;;;;4952936;29;20043;-54
2021/08/20 06:15:38;;;;;;;50.05;29.10;;;14.60;99.90;;;;;;4947977;28;20460;-50
2021/08/20 06:18:04;;;;;;;51.58;29.15;;;14.70;99.90;;;;;;4936423;29;20049;-54
2021/08/20 06:20:29;;;;;;;47.25;28.70;;;14.70;99.90;;;;;;4952100;29;20039;-52
2021/08/20 06:22:56;;;;;;;50.60;29.55;;;14.70;99.90;;;;;;4904112;29;20492;-53
2021/08/20 06:25:22;;;;;;;56.42;30.55;;;14.80;99.90;;;;;;4946830;29;20138;-52
2021/08/20 06:27:49;;;;;;;48.50;29.15;;;14.90;99.90;;;;;;4937810;29;20466;-53
2021/08/20 06:30:14;;;;;;;52.08;29.55;;;14.90;99.90;;;;;;4950110;29;20122;-53
2021/08/20 06:32:41;;;;;;;54.67;29.17;;;15.00;99.90;;;;;;4953255;29;20075;-54
2021/08/20 06:35:08;;;;;;;48.65;29.05;;;15.00;99.90;;;;;;4950274;28;20044;-54
2021/08/20 06:37:34;;;;;;;48.33;28.17;;;15.10;99.90;;;;;;4933364;29;20071;-54
2021/08/20 06:40:03;;;;;;;53.35;29.88;;;15.10;99.90;;;;;;4946644;29;20477;-53
2021/08/20 06:42:28;;;;;;;54.70;29.60;;;15.20;99.90;;;;;;4929686;29;20058;-52
2021/08/20 06:44:54;;;;;;;54.63;30.88;;;15.30;99.90;;;;;;4945076;28;20067;-53
2021/08/20 06:47:20;;;;;;;49.45;30.58;;;15.30;99.90;;;;;;4944442;28;20488;-53
2021/08/20 06:49:46;;;;;;;54.83;31.23;;;15.30;99.90;;;;;;4925365;29;20038;-54
2021/08/20 06:52:12;;;;;;;54.42;30.70;;;15.30;99.90;;;;;;4942718;29;20487;-54
2021/08/20 06:54:39;;;;;;;50.28;30.20;;;15.30;99.90;;;;;;4939910;28;20058;-54
2021/08/20 06:57:06;;;;;;;58.05;31.63;;;15.40;99.90;;;;;;4932069;29;20134;-54
2021/08/20 06:59:31;;;;;;;57.15;31.27;;;15.40;99.90;;;;;;4945593;29;20119;-54
2021/08/20 07:01:57;;;;;;;47.80;29.55;;;15.40;99.90;;;;;;4941120;29;20054;-53
2021/08/20 07:04:23;;;;;;;54.97;31.58;;;15.50;99.90;;;;;;4914837;29;20062;-51
2021/08/20 07:06:48;;;;;;;52.45;30.63;;;15.50;99.90;;;;;;4950101;29;20102;-51
2021/08/20 07:09:15;;;;;;;50.25;31.08;;;15.50;99.90;;;;;;4944351;29;20053;-50
2021/08/20 07:11:41;;;;;;;52.67;31.40;;;15.50;99.90;;;;;;4954478;29;20039;-50
2021/08/20 07:14:07;;;;;;;53.67;30.38;;;15.60;99.90;;;;;;4948988;28;20551;-51
2021/08/20 07:16:33;;;;;;;49.78;30.98;;;15.60;99.90;;;;;;4951268;28;20043;-51
2021/08/20 07:18:59;;;;;;;52.65;31.65;;;15.70;99.90;;;;;;4951437;29;20510;-54
2021/08/20 07:21:26;;;;;;;56.05;31.67;;;15.70;99.90;;;;;;4934789;29;20036;-48
2021/08/20 07:23:53;;;;;;;51.50;30.80;;;15.80;99.90;;;;;;4955279;28;20106;-48
2021/08/20 07:26:19;;;;;;;58.78;32.33;;;15.80;99.90;;;;;;4956339;29;20050;-49
2021/08/20 07:28:45;;;;;;;53.33;30.42;;;15.90;99.90;;;;;;4949438;29;20043;-48
2021/08/20 07:31:11;;;;;;;54.90;31.90;;;15.90;99.90;;;;;;4953679;29;20044;-52
2021/08/20 07:33:36;;;;;;;55.17;33.08;;;16.00;99.90;;;;;;4953129;29;20039;-52
2021/08/20 07:36:03;;;;;;;64.32;31.88;;;16.00;99.90;;;;;;4953784;29;20167;-51
2021/08/20 07:38:31;;;;;;;62.65;33.78;;;16.10;99.90;;;;;;4915919;29;20492;-53
2021/08/20 07:40:56;;;;;;;58.45;33.63;;;16.00;99.90;;;;;;4950867;29;20077;-50
2021/08/20 07:43:24;;;;;;;56.35;33.58;;;16.10;99.90;;;;;;4944984;29;20503;-53
2021/08/20 07:45:50;;;;;;;57.35;33.38;;;16.10;99.90;;;;;;4935906;29;20054;-54
2021/08/20 07:48:16;;;;;;;61.20;33.00;;;16.10;99.90;;;;;;4951583;29;20074;-54
2021/08/20 07:50:46;;;;;;;59.40;32.83;;;16.10;99.90;;;;;;4958766;29;20036;-51
2021/08/20 07:53:12;;;;;;;57.38;34.00;;;16.20;99.90;;;;;;4955361;29;20051;-51
2021/08/20 07:55:38;;;;;;;56.58;32.97;;;16.20;99.90;;;;;;4954639;28;20043;-52
2021/08/20 07:58:04;;;;;;;60.30;34.03;;;16.30;99.90;;;;;;4943234;29;20127;-52
2021/08/20 08:00:31;;;;;;;59.60;33.75;;;16.40;99.90;;;;;;4934968;29;20036;-52
2021/08/20 08:02:58;;;;;;;61.80;33.95;;;16.50;99.90;;;;;;4953211;29;20051;-54
2021/08/20 08:05:25;;;;;;;53.83;32.03;;;16.60;99.90;;;;;;4949649;28;20134;-56
2021/08/20 08:07:52;;;;;;;55.08;31.92;;;16.70;99.90;;;;;;4953993;29;20070;-55
2021/08/20 08:10:19;;;;;;;52.28;30.85;;;16.70;99.90;;;;;;4951831;29;20638;-55
2021/08/20 08:12:50;;;;;;;52.67;31.10;;;16.70;99.90;;;;;;4951156;28;20047;-55
2021/08/20 08:15:17;;;;;;;54.13;31.83;;;16.80;99.90;;;;;;4936767;29;20129;-56
2021/08/20 08:17:43;;;;;;;50.10;29.17;;;16.80;99.90;;;;;;4950096;29;20043;-53
2021/08/20 08:20:12;;;;;;;55.88;30.90;;;16.90;99.90;;;;;;4944850;29;20519;-55
2021/08/20 08:22:38;;;;;;;52.30;30.13;;;16.90;99.90;;;;;;4951537;29;20039;-55
2021/08/20 08:25:05;;;;;;;57.10;31.65;;;16.90;99.90;;;;;;4955609;28;20392;-54
2021/08/20 08:27:31;;;;;;;54.83;31.83;;;16.90;99.90;;;;;;4957526;28;20039;-54
2021/08/20 08:29:57;;;;;;;54.60;31.98;;;17.00;99.90;;;;;;4909065;29;20040;-56
2021/08/20 08:32:24;;;;;;;56.30;32.03;;;17.00;99.90;;;;;;4956217;28;20046;-56
2021/08/20 08:34:50;;;;;;;56.50;31.20;;;17.00;99.90;;;;;;4925118;29;20054;-54
2021/08/20 08:37:21;;;;;;;53.88;30.27;;;17.00;99.90;;;;;;4948112;29;20039;-55
2021/08/20 08:39:46;;;;;;;47.28;30.00;;;17.10;99.90;;;;;;4936522;29;20046;-56
2021/08/20 08:42:12;;;;;;;52.35;31.55;;;17.10;99.90;;;;;;4937889;29;20360;-56
2021/08/20 08:44:38;;;;;;;52.13;30.95;;;17.10;99.90;;;;;;4936908;29;20491;-54
2021/08/20 08:47:05;;;;;;;53.53;30.17;;;17.20;99.90;;;;;;4954203;28;20050;-55
2021/08/20 08:49:34;;;;;;;55.55;31.85;;;17.20;99.90;;;;;;4955146;29;20050;-55
2021/08/20 08:52:00;;;;;;;52.75;30.98;;;17.20;99.90;;;;;;4942885;29;20043;-55
2021/08/20 08:54:26;;;;;;;52.67;31.90;;;17.20;99.90;;;;;;4959325;28;20480;-54
2021/08/20 08:56:52;;;;;;;51.88;31.40;;;17.20;99.90;;;;;;4957043;29;20066;-50
2021/08/20 08:59:17;;;;;;;54.17;32.08;;;17.30;99.90;;;;;;4952278;29;20435;-54
2021/08/20 09:01:43;;;;;;;49.80;30.55;;;17.40;99.90;;;;;;4955872;29;20053;-56
2021/08/20 09:04:21;;;;;;;52.65;30.52;;;17.40;99.90;;;;;;4953654;28;20067;-56
2021/08/20 09:06:51;;;;;;;44.75;28.33;;;17.50;99.90;;;;;;4954364;29;20114;-56
2021/08/20 09:09:20;;;;;;;38.60;27.92;;;17.60;99.90;;;;;;4936396;29;20043;-56
2021/08/20 09:12:09;;;;;;;45.83;28.25;;;17.70;99.90;;;;;;4952645;29;20039;-56
2021/08/20 09:14:35;;;;;;;40.72;26.80;;;17.90;99.90;;;;;;4944002;29;20043;-56
2021/08/20 09:17:02;;;;;;;42.75;27.35;;;18.00;99.90;;;;;;4955919;28;20035;-55
2021/08/20 09:19:29;;;;;;;38.95;26.55;;;18.00;99.90;;;;;;4956419;28;20047;-55
2021/08/20 09:21:57;;;;;;;38.65;25.70;;;18.00;99.90;;;;;;4960273;28;20464;-56
2021/08/20 09:24:40;;;;;;;34.15;24.20;;;18.00;99.90;;;;;;4951708;28;20055;-56
2021/08/20 09:27:21;;;;;;;38.30;24.95;;;18.00;99.90;;;;;;4953061;28;20046;-55
2021/08/20 09:29:53;;;;;;;37.30;24.83;;;18.00;99.90;;;;;;4941916;29;20065;-54
2021/08/20 09:32:21;;;;;;;42.90;26.23;;;18.00;99.90;;;;;;4947055;29;20051;-56
2021/08/20 09:34:48;;;;;;;37.65;24.90;;;18.00;99.90;;;;;;4949313;28;20055;-56
2021/08/20 09:37:16;;;;;;;44.38;27.67;;;18.00;99.90;;;;;;4955345;29;20114;-57
2021/08/20 09:39:45;;;;;;;40.95;26.25;;;18.00;99.90;;;;;;4956562;29;20466;-52
2021/08/20 09:42:18;;;;;;;42.20;26.33;;;18.10;99.90;;;;;;4954601;28;20559;-51
2021/08/20 09:44:45;;;;;;;39.25;27.25;;;18.20;99.90;;;;;;4922891;28;20070;-51
2021/08/20 09:47:11;;;;;;;39.10;24.95;;;18.30;99.90;;;;;;4958450;28;20043;-49
2021/08/20 09:49:59;;;;;;;37.30;25.15;;;18.40;99.70;;;;;;4953699;29;20039;-52
2021/08/20 09:52:29;;;;;;;34.35;23.55;;;18.50;99.50;;;;;;4951168;28;20039;-53
2021/08/20 09:54:57;;;;;;;38.03;24.88;;;18.50;99.40;;;;;;4963967;28;20039;-53
2021/08/20 09:57:26;;;;;;;36.50;24.38;;;18.60;99.30;;;;;;4964447;28;20046;-52
2021/08/20 09:59:56;;;;;;;31.65;22.90;;;18.60;99.10;;;;;;4947030;29;20039;-49
2021/08/20 10:02:28;;;;;;;31.27;20.95;;;18.60;98.60;;;;;;4949230;29;20476;-50
2021/08/20 10:04:56;;;;;;;34.60;23.02;;;18.60;98.60;;;;;;4934099;29;20425;-48
2021/08/20 10:07:24;;;;;;;32.58;23.20;;;18.60;98.30;;;;;;4952182;29;20044;-50
2021/08/20 10:09:52;;;;;;;35.40;22.92;;;18.60;98.10;;;;;;4943406;29;20070;-49
2021/08/20 10:12:22;;;;;;;34.47;23.27;;;18.60;98.30;;;;;;4939042;29;20117;-49
2021/08/20 10:14:49;;;;;;;29.80;20.67;;;18.70;98.30;;;;;;4953781;29;20043;-52
2021/08/20 10:17:16;;;;;;;25.20;18.98;;;18.70;98.40;;;;;;4957537;28;20057;-52
2021/08/20 10:19:42;;;;;;;30.38;22.20;;;18.90;98.20;;;;;;4955107;29;20070;-48
2021/08/20 10:22:09;;;;;;;32.85;22.60;;;19.00;98.00;;;;;;4959703;28;20407;-50
2021/08/20 10:24:35;;;;;;;26.95;19.55;;;19.00;97.90;;;;;;4956763;28;20047;-51
2021/08/20 10:27:05;;;;;;;31.15;21.33;;;19.10;97.70;;;;;;4939073;29;20047;-49
2021/08/20 10:29:38;;;;;;;30.88;21.15;;;19.10;97.60;;;;;;4955212;29;20043;-50
2021/08/20 10:32:07;;;;;;;30.65;20.58;;;19.20;97.50;;;;;;4956672;29;20055;-49
2021/08/20 10:34:39;;;;;;;30.05;20.98;;;19.20;97.30;;;;;;4961768;28;20038;-51
2021/08/20 10:37:11;;;;;;;;;;;19.20;97.30;;;;;;4948870;29;20114;-51
2021/08/20 10:39:46;;;;;;;25.13;19.63;;;19.30;97.40;;;;;;4942607;29;19992;-53
2021/08/20 10:42:20;;;;;;;26.63;18.92;;;19.40;97.20;;;;;;4961190;29;20044;-55
2021/08/20 10:44:51;;;;;;;23.88;18.80;;;19.40;96.90;;;;;;4958369;28;20054;-51
2021/08/20 10:47:25;;;;;;;27.48;20.10;;;19.50;96.70;;;;;;4959950;28;20058;-52
2021/08/20 10:50:04;;;;;;;26.95;20.77;;;19.60;96.50;;;;;;4971297;28;20487;-51
2021/08/20 10:52:32;;;;;;;27.35;21.35;;;19.60;96.60;;;;;;4957411;28;20039;-48
2021/08/20 10:54:58;;;;;;;26.83;22.23;;;19.60;96.50;;;;;;4959430;29;20049;-53
2021/08/20 10:57:38;;;;;;;30.23;22.67;;;19.70;96.10;;;;;;4960592;29;20039;-49
2021/08/20 11:00:06;;;;;;;26.25;19.77;;;19.70;96.30;;;;;;4958622;29;20046;-49
2021/08/20 11:02:42;;;;;;;27.55;20.92;;;19.70;96.20;;;;;;4944206;29;20062;-51
2021/08/20 11:05:14;;;;;;;27.70;20.42;;;19.60;96.30;;;;;;4944542;29;20106;-52
2021/08/20 11:07:41;;;;;;;26.17;20.77;;;19.70;96.40;;;;;;4961196;28;20144;-51
2021/08/20 11:10:09;;;;;;;34.90;22.42;;;19.70;96.20;;;;;;4960164;29;20058;-53
2021/08/20 11:12:46;;;;;;;26.55;20.23;;;19.80;96.10;;;;;;4945613;29;20043;-51
2021/08/20 11:15:21;;;;;;;25.67;20.38;;;19.80;96.00;;;;;;4927219;28;20138;-50
2021/08/20 11:17:51;;;;;;;26.40;19.48;;;19.90;95.90;;;;;;4961584;28;20062;-53
2021/08/20 11:20:39;;;;;;;26.58;19.77;;;19.90;95.60;;;;;;4975927;28;20035;-54
2021/08/20 11:23:07;;;;;;;23.20;18.85;;;20.00;95.10;;;;;;4931197;29;20050;-52
2021/08/20 11:25:38;;;;;;;24.85;18.65;;;20.00;95.20;;;;;;4952838;29;20051;-50
2021/08/20 11:28:21;;;;;;;21.80;18.98;;;20.00;94.50;;;;;;4959274;29;20050;-49
2021/08/20 11:31:22;;;;;;;23.88;18.08;;;20.00;94.20;;;;;;4935205;29;20471;-55
2021/08/20 11:33:48;;;;;;;22.95;18.63;;;20.00;94.30;;;;;;4870590;29;20529;-51
2021/08/20 11:36:21;;;;;;;27.48;19.83;;;20.00;94.70;;;;;;4915183;29;20504;-52
2021/08/20 11:38:48;;;;;;;24.30;19.40;;;20.00;94.50;;;;;;4946850;29;20090;-50
2021/08/20 11:41:37;;;;;;;24.77;19.77;;;20.00;94.50;;;;;;4961854;29;20035;-49
2021/08/20 11:44:07;;;;;;;24.80;19.67;;;20.00;94.40;;;;;;4961454;28;20062;-52
2021/08/20 11:46:43;;;;;;;25.80;19.85;;;19.90;94.70;;;;;;4952600;28;20419;-50
2021/08/20 11:49:10;;;;;;;25.27;20.13;;;19.90;94.90;;;;;;4951523;28;20516;-53
2021/08/20 11:51:42;;;;;;;23.08;19.80;;;19.80;95.00;;;;;;4956779;29;20035;-49
2021/08/20 11:54:12;;;;;;;25.23;20.20;;;19.80;95.20;;;;;;4955314;28;20059;-50
2021/08/20 11:56:52;;;;;;;23.88;18.77;;;19.80;95.30;;;;;;4946634;29;20118;-50
2021/08/20 11:59:19;;;;;;;25.90;19.38;;;19.80;95.30;;;;;;4951983;29;20412;-51
2021/08/20 12:01:44;;;;;;;26.02;19.65;;;19.80;95.40;;;;;;4954785;29;20075;-50
2021/08/20 12:04:10;;;;;;;27.55;18.90;;;19.80;95.60;;;;;;4951921;28;20047;-50
2021/08/20 12:06:38;;;;;;;26.48;19.30;;;19.80;95.70;;;;;;4947850;28;20039;-53
2021/08/20 12:09:12;;;;;;;29.13;20.00;;;19.80;95.50;;;;;;4945487;29;20047;-52
2021/08/20 12:11:40;;;;;;;23.45;18.38;;;19.80;95.30;;;;;;4931420;29;20043;-53
2021/08/20 12:14:06;;;;;;;22.45;17.75;;;19.80;95.30;;;;;;4949616;29;20456;-51
2021/08/20 12:16:40;;;;;;;23.33;18.27;;;19.80;95.20;;;;;;4953538;29;20044;-53
2021/08/20 12:19:30;;;;;;;22.55;17.77;;;19.80;95.10;;;;;;4932924;29;20066;-54
2021/08/20 12:22:07;;;;;;;21.08;16.90;;;19.80;95.10;;;;;;4947825;29;20319;-55
2021/08/20 12:24:48;;;;;;;17.17;13.68;;;19.80;95.10;;;;;;4933490;29;20461;-51
2021/08/20 12:27:25;;;;;;;20.05;14.48;;;19.80;95.10;;;;;;4944062;28;20050;-54
2021/08/20 12:29:58;;;;;;;17.95;13.90;;;19.90;94.80;;;;;;4924776;29;20039;-51
2021/08/20 12:32:27;;;;;;;18.50;14.52;;;20.00;94.50;;;;;;4927978;29;20129;-53